createdAt,value
2018-11-27T00:02:27.421Z,17.17
2018-11-27T00:05:04.398Z,18.07
2018-11-27T00:07:39.423Z,18.67
2018-11-27T00:12:48.435Z,17.53
2018-11-27T00:17:56.384Z,16.97
2018-11-27T00:20:31.813Z,18.70
2018-11-27T00:23:06.914Z,18.30
2018-11-27T00:25:42.533Z,17.57
2018-11-27T00:28:17.295Z,18.67
2018-11-27T00:30:52.292Z,17.30
2018-11-27T00:35:59.951Z,18.63
2018-11-27T00:38:35.290Z,18.07
2018-11-27T00:41:09.922Z,18.83
2018-11-27T00:43:44.725Z,17.90
2018-11-27T00:46:19.285Z,17.83
2018-11-27T00:51:27.279Z,16.90
2018-11-27T00:56:35.304Z,19.07
2018-11-27T01:01:43.296Z,17.50
2018-11-27T01:06:50.946Z,17.53
2018-11-27T01:09:26.299Z,17.40
2018-11-27T01:12:01.287Z,17.27
2018-11-27T01:17:09.281Z,17.00
2018-11-27T01:22:17.319Z,17.60
2018-11-27T01:27:25.340Z,17.07
2018-11-27T01:32:33.418Z,19.47
2018-11-27T01:35:08.905Z,18.87
2018-11-27T01:37:43.954Z,17.33
2018-11-27T01:40:25.343Z,18.83
2018-11-27T01:45:37.285Z,18.53
2018-11-27T01:50:45.293Z,18.97
2018-11-27T01:55:55.277Z,17.37
2018-11-27T02:01:02.947Z,16.23
2018-11-27T02:03:38.305Z,17.20
2018-11-27T02:06:13.409Z,14.77
2018-11-27T02:08:48.337Z,16.60
2018-11-27T02:11:22.951Z,17.10
2018-11-27T02:13:57.889Z,16.85
2018-11-27T02:16:32.480Z,15.93
2018-11-27T02:19:07.399Z,15.53
2018-11-27T02:21:42.368Z,15.38
2018-11-27T02:24:17.386Z,14.87
2018-11-27T02:26:51.943Z,15.87
2018-11-27T02:29:27.294Z,16.30
2018-11-27T02:32:02.350Z,13.67
2018-11-27T02:42:16.285Z,15.97
2018-11-27T02:55:02.969Z,14.43
2018-11-27T02:57:38.371Z,16.83
2018-11-27T03:00:15.515Z,16.10
2018-11-27T03:02:50.408Z,14.93
2018-11-27T03:05:41.633Z,17.73
2018-11-27T03:08:16.575Z,16.33
2018-11-27T03:10:51.453Z,15.20
2018-11-27T03:13:26.295Z,16.57
2018-11-27T03:16:01.290Z,14.00
2018-11-27T03:21:09.453Z,15.77
2018-11-27T03:23:44.336Z,15.53
2018-11-27T03:26:19.335Z,16.13
2018-11-27T03:28:54.289Z,15.25
2018-11-27T03:31:29.414Z,17.27
2018-11-27T03:34:04.409Z,16.17
2018-11-27T03:36:38.951Z,18.53
2018-11-27T03:39:17.368Z,15.55
2018-11-27T03:46:58.386Z,16.03
2018-11-27T03:52:06.295Z,16.77
2018-11-27T03:54:42.362Z,16.50
2018-11-27T04:02:22.841Z,15.17
2018-11-27T04:04:57.439Z,14.97
2018-11-27T04:10:05.411Z,16.50
2018-11-27T04:15:13.330Z,15.73
2018-11-27T04:17:48.299Z,14.50
2018-11-27T04:25:30.766Z,16.60
2018-11-27T04:28:05.387Z,14.57
2018-11-27T04:30:42.342Z,15.73
2018-11-27T04:33:17.297Z,16.33
2018-11-27T04:35:52.305Z,16.37
2018-11-27T04:38:27.422Z,15.73
2018-11-27T04:41:01.955Z,15.10
2018-11-27T04:43:37.148Z,14.37
2018-11-27T04:46:12.293Z,15.25
2018-11-27T04:51:20.292Z,15.03
2018-11-27T04:56:28.041Z,15.63
2018-11-27T04:59:03.301Z,15.77
2018-11-27T05:01:38.003Z,14.80
2018-11-27T05:04:13.402Z,14.85
2018-11-27T05:09:21.401Z,15.07
2018-11-27T05:17:02.145Z,14.93
2018-11-27T05:19:37.395Z,14.27
2018-11-27T05:24:45.962Z,15.20
2018-11-27T05:27:20.916Z,15.53
2018-11-27T05:29:55.821Z,15.40
2018-11-27T05:32:30.967Z,14.63
2018-11-27T05:35:06.305Z,14.83
2018-11-27T05:37:41.300Z,16.20
2018-11-27T05:40:26.978Z,15.37
2018-11-27T05:43:18.467Z,17.27
2018-11-27T05:45:53.300Z,16.52
2018-11-27T05:51:01.382Z,16.53
2018-11-27T05:53:36.298Z,17.25
2018-11-27T05:56:11.399Z,17.10
2018-11-27T05:58:46.458Z,18.30
2018-11-27T06:01:21.297Z,17.53
2018-11-27T06:06:29.704Z,16.70
2018-11-27T06:09:04.801Z,17.83
2018-11-27T06:11:39.959Z,17.57
2018-11-27T06:14:15.324Z,17.77
2018-11-27T06:16:49.960Z,19.07
2018-11-27T06:19:25.182Z,18.37
2018-11-27T06:21:59.607Z,16.40
2018-11-27T06:24:34.453Z,18.03
2018-11-27T06:29:42.909Z,18.03
2018-11-27T06:32:21.375Z,16.50
2018-11-27T06:40:21.992Z,17.17
2018-11-27T06:42:57.086Z,16.77
2018-11-27T06:45:34.427Z,17.70
2018-11-27T06:48:09.582Z,17.37
2018-11-27T06:50:44.355Z,18.00
2018-11-27T06:53:19.293Z,16.70
2018-11-27T06:55:55.918Z,16.00
2018-11-27T06:58:31.359Z,17.27
2018-11-27T07:01:07.420Z,16.67
2018-11-27T07:06:16.433Z,15.78
2018-11-27T07:08:51.443Z,16.20
2018-11-27T07:11:26.297Z,17.35
2018-11-27T07:16:34.380Z,16.45
2018-11-27T07:24:15.795Z,16.07
2018-11-27T07:26:52.939Z,15.63
2018-11-27T07:29:27.524Z,15.70
2018-11-27T07:34:35.766Z,14.50
2018-11-27T07:37:10.464Z,15.93
2018-11-27T07:39:45.484Z,15.63
2018-11-27T07:42:20.465Z,14.70
2018-11-27T07:44:55.312Z,14.37
2018-11-27T07:47:30.312Z,14.67
2018-11-27T07:55:29.549Z,14.37
2018-11-27T07:58:04.468Z,13.27
2018-11-27T08:03:14.288Z,13.68
2018-11-27T08:05:48.806Z,14.40
2018-11-27T08:08:23.961Z,14.43
2018-11-27T08:10:58.486Z,12.40
2018-11-27T08:13:33.292Z,12.20
2018-11-27T08:16:08.294Z,11.07
2018-11-27T08:21:16.405Z,12.20
2018-11-27T08:23:51.417Z,12.83
2018-11-27T08:26:27.957Z,12.33
2018-11-27T08:29:06.403Z,12.25
2018-11-27T08:31:41.314Z,12.63
2018-11-27T08:36:50.740Z,13.40
2018-11-27T08:39:25.374Z,12.90
2018-11-27T08:42:00.299Z,12.53
2018-11-27T08:47:08.508Z,12.73
2018-11-27T08:54:41.435Z,11.83
2018-11-27T08:57:16.276Z,12.60
2018-11-27T09:02:24.304Z,11.50
2018-11-27T09:07:48.588Z,11.80
2018-11-27T09:13:00.825Z,12.80
2018-11-27T09:15:39.404Z,14.00
2018-11-27T09:18:26.444Z,13.23
2018-11-27T09:21:01.404Z,12.50
2018-11-27T09:23:36.292Z,12.80
2018-11-27T09:26:11.429Z,13.80
2018-11-27T09:28:46.744Z,14.03
2018-11-27T09:31:21.562Z,13.43
2018-11-27T09:33:56.397Z,14.77
2018-11-27T09:36:31.344Z,14.07
2018-11-27T09:44:13.300Z,14.13
2018-11-27T09:46:48.343Z,14.97
2018-11-27T09:49:24.353Z,14.45
2018-11-27T09:51:59.297Z,13.50
2018-11-27T09:54:34.288Z,15.40
2018-11-27T09:57:09.340Z,14.57
2018-11-27T09:59:44.969Z,15.20
2018-11-27T10:02:20.142Z,15.23
2018-11-27T10:04:55.353Z,14.70
2018-11-27T10:07:30.303Z,15.57
2018-11-27T10:10:05.354Z,14.23
2018-11-27T10:15:18.965Z,16.13
2018-11-27T10:18:13.742Z,14.57
2018-11-27T10:20:48.800Z,14.30
2018-11-27T10:23:24.360Z,16.50
2018-11-27T10:25:59.314Z,15.90
2018-11-27T10:28:34.421Z,15.37
2018-11-27T10:31:09.380Z,17.15
2018-11-27T10:33:44.400Z,16.40
2018-11-27T10:36:19.303Z,15.47
2018-11-27T10:41:27.362Z,16.60
2018-11-27T10:44:02.293Z,14.60
2018-11-27T10:46:37.423Z,15.48
2018-11-27T10:49:12.493Z,16.60
2018-11-27T10:54:20.384Z,17.90
2018-11-27T10:56:55.302Z,18.00
2018-11-27T10:59:30.945Z,16.77
2018-11-27T11:02:22.685Z,17.07
2018-11-27T11:04:57.402Z,17.20
2018-11-27T11:07:32.472Z,18.57
2018-11-27T11:10:07.481Z,16.60
2018-11-27T11:12:42.401Z,16.80
2018-11-27T11:15:17.423Z,17.07
2018-11-27T11:20:25.911Z,17.17
2018-11-27T11:23:01.285Z,16.17
2018-11-27T11:25:37.322Z,16.73
2018-11-27T11:30:47.394Z,17.52
2018-11-27T11:33:22.422Z,17.93
2018-11-27T11:35:57.295Z,19.17
2018-11-27T11:41:06.134Z,18.63
2018-11-27T11:46:14.301Z,18.97
2018-11-27T11:51:23.282Z,17.83
2018-11-27T11:56:31.238Z,20.03
2018-11-27T11:59:06.399Z,19.60
2018-11-27T12:04:15.146Z,19.77
2018-11-27T12:06:49.959Z,18.50
2018-11-27T12:09:25.143Z,20.10
2018-11-27T12:12:00.355Z,19.63
2018-11-27T12:17:08.289Z,18.27
2018-11-27T12:22:16.333Z,18.60
2018-11-27T12:29:57.325Z,19.07
2018-11-27T12:32:32.409Z,20.03
2018-11-27T12:40:05.324Z,18.10
2018-11-27T12:42:40.310Z,18.53
2018-11-27T12:45:17.339Z,19.10
2018-11-27T12:47:52.445Z,18.40
2018-11-27T12:50:50.442Z,18.33
2018-11-27T12:53:25.456Z,18.30
2018-11-27T12:56:00.295Z,17.30
2018-11-27T13:03:42.380Z,19.23
2018-11-27T13:06:17.083Z,18.87
2018-11-27T13:08:52.366Z,17.85
2018-11-27T13:11:27.299Z,17.83
2018-11-27T13:16:35.282Z,19.70
2018-11-27T13:21:43.284Z,18.67
2018-11-27T13:26:51.128Z,19.53
2018-11-27T13:29:26.420Z,19.37
2018-11-27T13:32:00.951Z,18.43
2018-11-27T13:34:36.172Z,18.77
2018-11-27T13:37:10.950Z,17.27
2018-11-27T13:39:46.201Z,17.07
2018-11-27T13:47:44.560Z,18.05
2018-11-27T13:50:20.380Z,17.10
2018-11-27T13:55:28.363Z,17.40
2018-11-27T14:00:37.177Z,17.00
2018-11-27T14:03:12.285Z,16.40
2018-11-27T14:05:47.293Z,17.57
2018-11-27T14:10:55.281Z,17.47
2018-11-27T14:16:03.302Z,15.67
2018-11-27T14:21:11.346Z,16.40
2018-11-27T14:26:19.293Z,16.60
2018-11-27T14:28:54.290Z,15.35
2018-11-27T14:31:29.085Z,14.90
2018-11-27T14:34:04.282Z,15.33
2018-11-27T14:36:40.291Z,16.83
2018-11-27T14:41:49.276Z,16.10
2018-11-27T14:46:56.951Z,16.00
2018-11-27T14:49:32.277Z,17.37
2018-11-27T14:52:07.366Z,16.13
2018-11-27T14:54:42.148Z,15.70
2018-11-27T14:57:17.275Z,15.30
2018-11-27T15:02:25.282Z,16.70
2018-11-27T15:07:33.201Z,17.20
2018-11-27T15:10:09.359Z,15.43
2018-11-27T15:15:17.971Z,19.20
2018-11-27T15:17:53.340Z,16.63
2018-11-27T15:20:28.777Z,15.50
2018-11-27T15:23:03.955Z,16.23
2018-11-27T15:25:46.749Z,15.10
2018-11-27T15:28:21.579Z,14.97
2018-11-27T15:30:56.379Z,15.33
2018-11-27T15:33:31.282Z,15.17
2018-11-27T15:36:06.427Z,16.23
2018-11-27T15:38:41.355Z,14.90
2018-11-27T15:41:16.384Z,14.35
2018-11-27T15:43:51.952Z,15.40
2018-11-27T15:46:26.884Z,14.90
2018-11-27T15:49:01.884Z,15.33
2018-11-27T15:51:36.479Z,16.80
2018-11-27T15:54:11.391Z,15.77
2018-11-27T15:56:46.285Z,15.13
2018-11-27T16:01:54.341Z,15.00
2018-11-27T16:04:29.361Z,13.40
2018-11-27T16:07:04.153Z,15.67
2018-11-27T16:09:39.431Z,16.15
2018-11-27T16:12:14.233Z,14.93
2018-11-27T16:17:24.277Z,14.80
2018-11-27T16:25:05.504Z,16.03
2018-11-27T16:27:40.275Z,20.20
2018-11-27T16:30:37.382Z,18.37
2018-11-27T16:33:12.428Z,14.17
2018-11-27T16:35:47.304Z,15.33
2018-11-27T16:38:22.361Z,15.00
2018-11-27T16:40:57.282Z,13.83
2018-11-27T16:46:04.942Z,15.33
2018-11-27T16:48:39.954Z,14.33
2018-11-27T16:51:14.453Z,15.53
2018-11-27T16:53:49.290Z,15.40
2018-11-27T16:56:24.301Z,15.63
2018-11-27T16:58:59.295Z,16.35
2018-11-27T17:01:33.959Z,17.27
2018-11-27T17:04:09.147Z,15.70
2018-11-27T17:06:44.278Z,15.63
2018-11-27T17:11:54.460Z,16.10
2018-11-27T17:14:29.314Z,16.20
2018-11-27T17:17:04.277Z,15.83
2018-11-27T17:19:39.600Z,15.30
2018-11-27T17:22:14.323Z,16.20
2018-11-27T17:27:22.280Z,21.83
2018-11-27T17:35:05.357Z,17.30
2018-11-27T17:37:39.863Z,16.87
2018-11-27T17:40:16.384Z,16.90
2018-11-27T17:42:51.285Z,16.27
2018-11-27T17:45:47.301Z,23.43
2018-11-27T17:50:55.305Z,16.50
2018-11-27T17:56:03.296Z,16.87
2018-11-27T18:01:10.730Z,13.80
2018-11-27T18:03:45.466Z,16.10
2018-11-27T18:06:20.365Z,14.45
2018-11-27T18:08:55.151Z,13.80
2018-11-27T18:11:29.896Z,13.30
2018-11-27T18:14:04.961Z,13.40
2018-11-27T18:19:12.770Z,13.20
2018-11-27T18:21:47.297Z,13.23
2018-11-27T18:26:56.289Z,14.17
2018-11-27T18:32:04.954Z,13.62
2018-11-27T18:34:40.577Z,13.07
2018-11-27T18:37:15.466Z,14.33
2018-11-27T18:39:50.961Z,13.10
2018-11-27T18:42:25.768Z,12.70
2018-11-27T18:45:00.977Z,14.00
2018-11-27T18:47:35.904Z,13.40
2018-11-27T18:50:12.943Z,14.50
2018-11-27T18:52:47.711Z,14.33
2018-11-27T18:56:16.306Z,13.68
2018-11-27T19:01:24.273Z,13.37
2018-11-27T19:06:32.022Z,36.83
2018-11-27T19:09:08.320Z,23.00
2018-11-27T19:11:43.353Z,14.63
2018-11-27T19:16:51.661Z,16.67
2018-11-27T19:19:27.365Z,14.23
2018-11-27T19:22:02.305Z,14.05
2018-11-27T19:29:44.957Z,14.43
2018-11-27T19:32:19.747Z,12.33
2018-11-27T19:34:55.351Z,12.47
2018-11-27T19:37:30.282Z,13.33
2018-11-27T19:40:06.352Z,13.27
2018-11-27T19:42:41.156Z,13.23
2018-11-27T19:45:41.300Z,13.17
2018-11-27T19:50:49.538Z,12.68
2018-11-27T19:53:24.365Z,13.83
2018-11-27T20:01:05.291Z,12.50
2018-11-27T20:11:19.123Z,14.00
2018-11-27T20:13:54.144Z,14.10
2018-11-27T20:16:29.231Z,13.10
2018-11-27T20:21:37.284Z,14.90
2018-11-27T20:26:45.459Z,13.67
2018-11-27T20:29:20.911Z,13.77
2018-11-27T20:31:55.961Z,13.08
2018-11-27T20:34:31.472Z,12.68
2018-11-27T20:37:06.289Z,12.90
2018-11-27T20:42:14.952Z,13.35
2018-11-27T20:44:50.339Z,14.13
2018-11-27T20:47:25.319Z,13.00
2018-11-27T20:52:33.309Z,13.73
2018-11-27T20:55:09.346Z,15.07
2018-11-27T20:57:45.300Z,13.55
2018-11-27T21:00:46.286Z,12.37
2018-11-27T21:05:54.109Z,13.25
2018-11-27T21:08:29.297Z,12.35
2018-11-27T21:15:58.306Z,12.97
2018-11-27T21:21:06.285Z,12.30
2018-11-27T21:23:41.395Z,13.50
2018-11-27T21:26:15.522Z,13.67
2018-11-27T21:28:50.278Z,12.23
2018-11-27T21:31:25.115Z,12.67
2018-11-27T21:34:00.310Z,12.27
2018-11-27T21:36:35.315Z,12.37
2018-11-27T21:39:12.310Z,11.70
2018-11-27T21:46:53.888Z,12.23
2018-11-27T21:49:29.307Z,12.80
2018-11-27T21:52:04.293Z,12.73
2018-11-27T21:58:27.343Z,12.07
2018-11-27T22:03:35.276Z,11.80
2018-11-27T22:06:09.956Z,11.70
2018-11-27T22:08:53.887Z,12.17
2018-11-27T22:11:28.923Z,12.87
2018-11-27T22:14:03.784Z,10.77
2018-11-27T22:16:39.287Z,12.25
2018-11-27T22:21:47.112Z,11.28
2018-11-27T22:24:23.264Z,11.70
2018-11-27T22:26:58.290Z,12.05
2018-11-27T22:32:09.589Z,11.90
2018-11-27T22:34:44.949Z,12.00
2018-11-27T22:37:19.690Z,14.13
2018-11-27T22:39:55.007Z,12.93
2018-11-27T22:42:29.984Z,13.63
2018-11-27T22:45:05.503Z,13.43
2018-11-27T22:50:21.312Z,13.93
2018-11-27T22:55:32.631Z,13.48
2018-11-27T22:58:05.477Z,12.20
2018-11-27T23:00:54.279Z,14.10
2018-11-27T23:06:01.991Z,14.67
2018-11-27T23:08:37.286Z,14.23
2018-11-27T23:11:12.292Z,14.93
2018-11-27T23:16:20.287Z,14.43
2018-11-27T23:21:28.411Z,15.18
2018-11-27T23:24:03.284Z,14.73
2018-11-27T23:26:38.302Z,13.80
2018-11-27T23:31:46.295Z,14.83
2018-11-27T23:34:21.410Z,14.25
2018-11-27T23:36:56.297Z,15.35
2018-11-27T23:39:31.357Z,15.20
2018-11-27T23:42:06.665Z,13.90
2018-11-27T23:44:41.824Z,14.80
2018-11-27T23:47:16.467Z,14.10
2018-11-27T23:49:51.460Z,13.20
2018-11-27T23:52:26.309Z,14.20
2018-11-27T23:57:34.287Z,13.73
